createdAt,value
2022-12-25T00:01:43.306Z,6.94
2022-12-25T00:04:09.794Z,6.96
2022-12-25T00:06:36.330Z,6.95
2022-12-25T00:09:02.952Z,6.95
2022-12-25T00:11:29.630Z,6.97
2022-12-25T00:13:56.177Z,7.01
2022-12-25T00:16:24.291Z,7.03
2022-12-25T00:18:51.893Z,7.04
2022-12-25T00:21:19.674Z,7.07
2022-12-25T00:23:46.137Z,7.09
2022-12-25T00:26:15.143Z,7.09
2022-12-25T00:28:42.114Z,7.12
2022-12-25T00:31:09.739Z,7.16
2022-12-25T00:33:37.589Z,7.17
2022-12-25T00:36:08.642Z,7.18
2022-12-25T00:38:36.501Z,7.15
2022-12-25T00:41:07.660Z,7.11
2022-12-25T00:43:34.187Z,7.11
2022-12-25T00:46:02.240Z,7.12
2022-12-25T00:48:30.298Z,7.14
2022-12-25T00:51:00.862Z,7.15
2022-12-25T00:53:27.981Z,7.16
2022-12-25T00:56:05.539Z,7.14
2022-12-25T00:58:33.429Z,7.13
2022-12-25T01:01:00.411Z,7.10
2022-12-25T01:03:27.901Z,7.08
2022-12-25T01:06:00.615Z,7.05
2022-12-25T01:08:28.357Z,7.05
2022-12-25T01:10:56.926Z,7.01
2022-12-25T01:13:24.157Z,6.95
2022-12-25T01:15:54.010Z,6.86
2022-12-25T01:18:22.120Z,6.79
2022-12-25T01:20:48.656Z,6.72
2022-12-25T01:23:15.166Z,6.69
2022-12-25T01:25:41.810Z,6.67
2022-12-25T01:28:08.298Z,6.64
2022-12-25T01:30:35.037Z,6.60
2022-12-25T01:33:01.999Z,6.57
2022-12-25T01:35:28.893Z,6.52
2022-12-25T01:37:55.464Z,6.48
2022-12-25T01:40:22.210Z,6.43
2022-12-25T01:42:48.682Z,6.41
2022-12-25T01:45:34.330Z,6.44
2022-12-25T01:48:04.769Z,6.44
2022-12-25T01:50:31.663Z,6.45
2022-12-25T01:52:58.207Z,6.46
2022-12-25T01:55:25.890Z,6.45
2022-12-25T01:57:52.311Z,6.43
2022-12-25T02:00:19.041Z,6.41
2022-12-25T02:02:45.974Z,6.40
2022-12-25T02:05:22.847Z,6.43
2022-12-25T02:07:50.829Z,6.42
2022-12-25T02:10:17.870Z,6.42
2022-12-25T02:12:45.224Z,6.41
2022-12-25T02:15:15.735Z,6.37
2022-12-25T02:18:06.660Z,6.37
2022-12-25T02:21:03.687Z,6.37
2022-12-25T02:23:48.800Z,6.38
2022-12-25T02:26:46.645Z,6.39
2022-12-25T02:29:22.043Z,6.38
2022-12-25T02:32:20.692Z,6.34
2022-12-25T02:35:06.363Z,6.29
2022-12-25T02:37:40.801Z,6.27
2022-12-25T02:40:22.481Z,6.25
2022-12-25T02:43:20.754Z,6.25
2022-12-25T02:46:22.104Z,6.23
2022-12-25T02:49:11.380Z,6.18
2022-12-25T02:52:03.318Z,6.11
2022-12-25T02:54:52.467Z,6.05
2022-12-25T02:57:45.536Z,6.02
2022-12-25T03:00:31.554Z,6.01
2022-12-25T03:03:18.094Z,6.00
2022-12-25T03:06:03.412Z,5.98
2022-12-25T03:08:34.726Z,5.94
2022-12-25T03:11:22.761Z,5.89
2022-12-25T03:13:52.808Z,5.83
2022-12-25T03:16:38.474Z,5.77
2022-12-25T03:19:25.119Z,5.72
2022-12-25T03:22:11.674Z,5.71
2022-12-25T03:24:57.969Z,5.69
2022-12-25T03:27:25.317Z,5.67
2022-12-25T03:30:10.782Z,5.65
2022-12-25T03:32:58.048Z,5.62
2022-12-25T03:35:30.882Z,5.61
2022-12-25T03:38:30.537Z,5.59
2022-12-25T03:41:46.038Z,5.60
2022-12-25T03:44:21.752Z,5.61
2022-12-25T03:47:13.249Z,5.60
2022-12-25T03:50:08.764Z,5.60
2022-12-25T03:52:55.026Z,5.56
2022-12-25T03:55:41.328Z,5.51
2022-12-25T03:58:36.669Z,5.48
2022-12-25T04:01:22.138Z,5.47
2022-12-25T04:04:07.899Z,5.45
2022-12-25T04:06:53.148Z,5.41
2022-12-25T04:09:38.585Z,5.36
2022-12-25T04:12:24.678Z,5.34
2022-12-25T04:15:10.298Z,5.29
2022-12-25T04:17:55.653Z,5.23
2022-12-25T04:20:40.841Z,5.20
2022-12-25T04:23:26.041Z,5.16
2022-12-25T04:26:30.979Z,5.16
2022-12-25T04:29:16.447Z,5.12
2022-12-25T04:32:01.648Z,5.09
2022-12-25T04:34:46.906Z,5.05
2022-12-25T04:37:13.536Z,4.98
2022-12-25T04:39:40.085Z,4.94
2022-12-25T04:42:06.471Z,4.93
2022-12-25T04:44:33.358Z,4.93
2022-12-25T04:47:01.746Z,4.94
2022-12-25T04:49:32.959Z,4.93
2022-12-25T04:51:59.547Z,4.91
2022-12-25T04:54:26.124Z,4.89
2022-12-25T04:56:52.607Z,4.86
2022-12-25T04:59:18.972Z,4.81
2022-12-25T05:01:48.477Z,4.75
2022-12-25T05:04:14.901Z,4.71
2022-12-25T05:06:41.478Z,4.70
2022-12-25T05:09:09.172Z,4.72
2022-12-25T05:11:35.760Z,4.73
2022-12-25T05:14:02.193Z,4.73
2022-12-25T05:16:28.921Z,4.73
2022-12-25T05:18:55.350Z,4.69
2022-12-25T05:21:22.664Z,4.64
2022-12-25T05:23:51.059Z,4.65
2022-12-25T05:26:21.109Z,4.68
2022-12-25T05:28:47.584Z,4.72
2022-12-25T05:31:14.562Z,4.73
2022-12-25T05:33:40.856Z,4.74
2022-12-25T05:36:09.752Z,4.73
2022-12-25T05:38:36.759Z,4.70
2022-12-25T05:41:03.324Z,4.68
2022-12-25T05:43:30.019Z,4.69
2022-12-25T05:45:56.983Z,4.74
2022-12-25T05:48:23.405Z,4.79
2022-12-25T05:50:49.984Z,4.81
2022-12-25T05:53:16.596Z,4.83
2022-12-25T05:55:43.080Z,4.83
2022-12-25T05:58:10.311Z,4.82
2022-12-25T06:00:37.472Z,4.79
2022-12-25T06:03:04.026Z,4.80
2022-12-25T06:05:30.780Z,4.82
2022-12-25T06:07:57.497Z,4.84
2022-12-25T06:10:23.909Z,4.84
2022-12-25T06:12:50.601Z,4.83
2022-12-25T06:15:17.423Z,4.83
2022-12-25T06:17:43.839Z,4.80
2022-12-25T06:20:10.585Z,4.77
2022-12-25T06:22:37.398Z,4.75
2022-12-25T06:25:04.110Z,4.74
2022-12-25T06:27:30.618Z,4.73
2022-12-25T06:29:57.255Z,4.76
2022-12-25T06:32:23.632Z,4.75
2022-12-25T06:34:50.262Z,4.71
2022-12-25T06:37:17.005Z,4.67
2022-12-25T06:39:43.523Z,4.62
2022-12-25T06:42:09.895Z,4.58
2022-12-25T06:44:37.639Z,4.55
2022-12-25T06:47:04.709Z,4.55
2022-12-25T06:49:31.339Z,4.55
2022-12-25T06:51:58.149Z,4.55
2022-12-25T06:54:24.651Z,4.52
2022-12-25T06:56:51.352Z,4.50
2022-12-25T06:59:18.083Z,4.48
2022-12-25T07:01:46.755Z,4.42
2022-12-25T07:04:25.531Z,4.37
2022-12-25T07:06:52.564Z,4.34
2022-12-25T07:09:19.040Z,4.33
2022-12-25T07:11:45.731Z,4.34
2022-12-25T07:14:24.295Z,4.32
2022-12-25T07:16:51.623Z,4.30
2022-12-25T07:19:18.642Z,4.27
2022-12-25T07:21:45.582Z,4.22
2022-12-25T07:24:12.195Z,4.18
2022-12-25T07:26:38.819Z,4.14
2022-12-25T07:29:05.636Z,4.11
2022-12-25T07:31:32.279Z,4.10
2022-12-25T07:33:59.138Z,4.10
2022-12-25T07:36:25.661Z,4.10
2022-12-25T07:38:52.266Z,4.12
2022-12-25T07:41:18.865Z,4.14
2022-12-25T07:43:49.068Z,4.15
2022-12-25T07:46:15.857Z,4.15
2022-12-25T07:48:42.483Z,4.13
2022-12-25T07:51:11.597Z,4.15
2022-12-25T07:53:38.953Z,4.19
2022-12-25T07:56:11.379Z,4.21
2022-12-25T07:58:38.496Z,4.24
2022-12-25T08:01:08.173Z,4.25
2022-12-25T08:03:35.441Z,4.25
2022-12-25T08:06:03.921Z,4.23
2022-12-25T08:08:30.568Z,4.21
2022-12-25T08:10:57.346Z,4.21
2022-12-25T08:13:23.816Z,4.24
2022-12-25T08:15:50.715Z,4.25
2022-12-25T08:18:17.179Z,4.28
2022-12-25T08:20:43.553Z,4.30
2022-12-25T08:23:10.596Z,4.30
2022-12-25T08:25:37.062Z,4.29
2022-12-25T08:28:03.620Z,4.30
2022-12-25T08:30:30.384Z,4.34
2022-12-25T08:32:57.077Z,4.38
2022-12-25T08:35:23.562Z,4.42
2022-12-25T08:37:50.168Z,4.47
2022-12-25T08:40:17.502Z,4.48
2022-12-25T08:42:43.913Z,4.50
2022-12-25T08:45:10.824Z,4.52
2022-12-25T08:47:37.411Z,4.55
2022-12-25T08:50:04.558Z,4.60
2022-12-25T08:52:31.225Z,4.67
2022-12-25T08:54:57.727Z,4.72
2022-12-25T08:57:24.244Z,4.78
2022-12-25T08:59:50.702Z,4.80
2022-12-25T09:02:18.036Z,4.83
2022-12-25T09:04:45.977Z,4.89
2022-12-25T09:07:12.709Z,5.03
2022-12-25T09:09:39.460Z,5.17
2022-12-25T09:12:06.046Z,5.29
2022-12-25T09:14:32.581Z,5.47
2022-12-25T09:16:59.386Z,5.57
2022-12-25T09:19:25.893Z,5.53
2022-12-25T09:21:52.359Z,5.50
2022-12-25T09:24:20.107Z,5.51
2022-12-25T09:26:46.600Z,5.54
2022-12-25T09:29:14.180Z,5.59
2022-12-25T09:31:41.739Z,5.61
2022-12-25T09:34:11.427Z,5.66
2022-12-25T09:36:40.563Z,5.68
2022-12-25T09:39:07.643Z,5.72
2022-12-25T09:41:53.388Z,5.73
2022-12-25T09:44:23.871Z,5.76
2022-12-25T09:46:53.772Z,5.80
2022-12-25T09:49:37.501Z,5.86
2022-12-25T09:52:15.664Z,5.90
2022-12-25T09:54:45.396Z,5.92
2022-12-25T09:57:13.511Z,5.91
2022-12-25T09:59:42.428Z,5.91
2022-12-25T10:02:54.802Z,5.94
2022-12-25T10:06:03.958Z,5.99
2022-12-25T10:08:36.262Z,6.03
2022-12-25T10:11:05.873Z,6.05
2022-12-25T10:13:40.085Z,6.06
2022-12-25T10:16:32.178Z,6.08
2022-12-25T10:19:09.608Z,6.08
2022-12-25T10:21:36.794Z,6.11
2022-12-25T10:24:07.508Z,6.16
2022-12-25T10:26:34.893Z,6.21
2022-12-25T10:29:04.690Z,6.25
2022-12-25T10:31:34.638Z,6.27
2022-12-25T10:34:01.702Z,6.27
2022-12-25T10:36:30.057Z,6.27
2022-12-25T10:38:56.633Z,6.30
2022-12-25T10:41:35.558Z,6.35
2022-12-25T10:44:19.574Z,6.40
2022-12-25T10:46:58.322Z,6.45
2022-12-25T10:49:29.123Z,6.47
2022-12-25T10:51:55.721Z,6.49
2022-12-25T10:54:32.296Z,6.50
2022-12-25T10:57:00.194Z,6.54
2022-12-25T10:59:29.585Z,6.61
2022-12-25T11:02:23.595Z,6.65
2022-12-25T11:04:51.925Z,6.69
2022-12-25T11:07:18.570Z,6.70
2022-12-25T11:10:02.749Z,6.70
2022-12-25T11:12:37.970Z,6.71
2022-12-25T11:15:27.578Z,6.72
2022-12-25T11:17:54.165Z,6.74
2022-12-25T11:20:21.163Z,6.77
2022-12-25T11:22:49.652Z,6.83
2022-12-25T11:25:24.841Z,6.88
2022-12-25T11:28:03.555Z,6.91
2022-12-25T11:30:32.269Z,6.92
2022-12-25T11:33:09.377Z,6.92
2022-12-25T11:35:47.054Z,6.93
2022-12-25T11:38:13.578Z,6.96
2022-12-25T11:40:51.864Z,7.00
2022-12-25T11:43:25.451Z,7.04
2022-12-25T11:45:56.610Z,7.06
2022-12-25T11:48:27.887Z,7.07
2022-12-25T11:50:57.538Z,7.07
2022-12-25T11:53:42.730Z,7.10
2022-12-25T11:56:15.743Z,7.14
2022-12-25T11:58:49.353Z,7.16
2022-12-25T12:01:28.028Z,7.20
2022-12-25T12:03:54.881Z,7.21
2022-12-25T12:06:49.508Z,7.22
2022-12-25T12:09:34.230Z,7.21
2022-12-25T12:12:08.266Z,7.19
2022-12-25T12:14:49.320Z,7.19
2022-12-25T12:17:17.626Z,7.23
2022-12-25T12:19:44.073Z,7.28
2022-12-25T12:22:22.785Z,7.31
2022-12-25T12:24:54.128Z,7.32
2022-12-25T12:27:25.278Z,7.32
2022-12-25T12:29:55.603Z,7.30
2022-12-25T12:32:43.053Z,7.30
2022-12-25T12:35:25.721Z,7.36
2022-12-25T12:37:59.596Z,7.43
2022-12-25T12:40:53.661Z,7.47
2022-12-25T12:43:35.157Z,7.50
2022-12-25T12:46:27.696Z,7.50
2022-12-25T12:49:09.677Z,7.50
2022-12-25T12:51:37.462Z,7.50
2022-12-25T12:54:20.060Z,7.53
2022-12-25T12:57:04.774Z,7.58
2022-12-25T12:59:40.820Z,7.61
2022-12-25T13:02:26.113Z,7.61
2022-12-25T13:05:14.833Z,7.60
2022-12-25T13:08:18.730Z,7.59
2022-12-25T13:10:50.413Z,7.62
2022-12-25T13:13:35.988Z,7.65
2022-12-25T13:16:03.156Z,7.70
2022-12-25T13:18:30.079Z,7.74
2022-12-25T13:20:59.278Z,7.76
2022-12-25T13:23:31.986Z,7.76
2022-12-25T13:26:10.267Z,7.75
2022-12-25T13:28:37.051Z,7.73
2022-12-25T13:31:21.265Z,7.75
2022-12-25T13:33:59.371Z,7.78
2022-12-25T13:36:26.854Z,7.81
2022-12-25T13:38:55.143Z,7.84
2022-12-25T13:42:05.173Z,7.86
2022-12-25T13:44:48.728Z,7.83
2022-12-25T13:47:15.303Z,7.79
2022-12-25T13:49:42.052Z,7.77
2022-12-25T13:52:11.251Z,7.76
2022-12-25T13:54:38.508Z,7.77
2022-12-25T13:57:12.537Z,7.78
2022-12-25T13:59:39.354Z,7.80
2022-12-25T14:02:17.152Z,7.79
2022-12-25T14:04:44.713Z,7.78
2022-12-25T14:07:11.681Z,7.75
2022-12-25T14:09:39.478Z,7.70
2022-12-25T14:12:07.924Z,7.67
2022-12-25T14:14:36.131Z,7.65
2022-12-25T14:17:02.741Z,7.63
2022-12-25T14:19:31.709Z,7.61
2022-12-25T14:22:03.265Z,7.56
2022-12-25T14:24:30.694Z,7.51
2022-12-25T14:27:02.484Z,7.46
2022-12-25T14:29:36.403Z,7.40
2022-12-25T14:32:05.396Z,7.36
2022-12-25T14:34:32.955Z,7.35
2022-12-25T14:37:00.674Z,7.33
2022-12-25T14:39:30.607Z,7.33
2022-12-25T14:41:57.717Z,7.34
2022-12-25T14:44:31.600Z,7.32
2022-12-25T14:47:15.326Z,7.28
2022-12-25T14:49:42.089Z,7.25
2022-12-25T14:52:17.726Z,7.26
2022-12-25T14:54:57.664Z,7.29
2022-12-25T14:57:28.108Z,7.32
2022-12-25T15:00:00.728Z,7.33
2022-12-25T15:02:39.877Z,7.34
2022-12-25T15:05:26.478Z,7.36
2022-12-25T15:08:10.441Z,7.37
2022-12-25T15:13:28.135Z,7.38
2022-12-25T15:16:15.724Z,7.40
2022-12-25T15:18:44.338Z,7.39
2022-12-25T15:21:26.622Z,7.38
2022-12-25T15:23:54.131Z,7.35
2022-12-25T15:26:21.098Z,7.33
2022-12-25T15:28:47.528Z,7.32
2022-12-25T15:31:29.157Z,7.34
2022-12-25T15:33:58.044Z,7.37
2022-12-25T15:36:25.718Z,7.38
2022-12-25T15:38:52.922Z,7.38
2022-12-25T15:41:42.051Z,7.37
2022-12-25T15:44:11.298Z,7.35
2022-12-25T15:46:38.065Z,7.31
2022-12-25T15:49:05.066Z,7.31
2022-12-25T15:51:32.065Z,7.32
2022-12-25T15:53:58.987Z,7.33
2022-12-25T15:56:25.915Z,7.33
2022-12-25T15:58:52.647Z,7.33
2022-12-25T16:01:20.334Z,7.31
2022-12-25T16:03:47.566Z,7.28
2022-12-25T16:06:16.445Z,7.23
2022-12-25T16:08:43.686Z,7.22
2022-12-25T16:11:10.841Z,7.22
2022-12-25T16:13:37.459Z,7.24
2022-12-25T16:16:04.565Z,7.25
2022-12-25T16:18:31.019Z,7.26
2022-12-25T16:20:58.461Z,7.25
2022-12-25T16:23:25.276Z,7.22
2022-12-25T16:25:51.642Z,7.19
2022-12-25T16:28:18.216Z,7.16
2022-12-25T16:30:44.886Z,7.13
2022-12-25T16:33:11.698Z,7.13
2022-12-25T16:35:38.547Z,7.14
2022-12-25T16:38:05.048Z,7.17
2022-12-25T16:40:31.898Z,7.18
2022-12-25T16:42:58.729Z,7.21
2022-12-25T16:45:25.145Z,7.21
2022-12-25T16:47:51.845Z,7.19
2022-12-25T16:50:18.243Z,7.18
2022-12-25T16:52:44.662Z,7.14
2022-12-25T16:55:11.365Z,7.09
2022-12-25T16:57:37.765Z,7.09
2022-12-25T17:00:05.010Z,7.10
2022-12-25T17:02:31.802Z,7.13
2022-12-25T17:04:59.873Z,7.15
2022-12-25T17:07:26.695Z,7.17
2022-12-25T17:09:53.401Z,7.18
2022-12-25T17:12:20.061Z,7.14
2022-12-25T17:14:46.509Z,7.14
2022-12-25T17:17:13.262Z,7.11
2022-12-25T17:19:40.902Z,7.10
2022-12-25T17:22:07.407Z,7.11
2022-12-25T17:24:35.747Z,7.13
2022-12-25T17:27:03.110Z,7.15
2022-12-25T17:29:31.277Z,7.17
2022-12-25T17:31:57.905Z,7.16
2022-12-25T17:34:24.778Z,7.12
2022-12-25T17:36:52.517Z,7.08
2022-12-25T17:39:19.138Z,7.02
2022-12-25T17:41:49.381Z,6.99
2022-12-25T17:44:16.603Z,7.01
2022-12-25T17:46:43.269Z,7.03
2022-12-25T17:49:14.607Z,7.03
2022-12-25T17:51:41.331Z,7.01
2022-12-25T17:54:08.797Z,6.99
2022-12-25T17:56:36.233Z,6.99
2022-12-25T17:59:07.441Z,6.97
2022-12-25T18:01:36.143Z,6.98
2022-12-25T18:04:03.751Z,7.00
2022-12-25T18:06:30.347Z,7.02
2022-12-25T18:08:57.406Z,7.04
2022-12-25T18:11:28.441Z,7.05
2022-12-25T18:13:57.284Z,7.04
2022-12-25T18:16:25.846Z,7.01
2022-12-25T18:18:53.135Z,7.00
2022-12-25T18:21:21.529Z,6.99
2022-12-25T18:23:48.515Z,7.01
2022-12-25T18:26:15.452Z,7.04
2022-12-25T18:28:43.192Z,7.04
2022-12-25T18:31:11.412Z,7.04
2022-12-25T18:33:38.600Z,7.02
2022-12-25T18:36:05.679Z,7.01
2022-12-25T18:38:32.482Z,6.99
2022-12-25T18:40:59.433Z,7.00
2022-12-25T18:43:52.222Z,7.02
2022-12-25T18:46:13.948Z,7.05
2022-12-25T18:48:40.793Z,7.09
2022-12-25T18:51:07.912Z,7.09
2022-12-25T18:53:35.549Z,7.09
2022-12-25T18:56:06.817Z,7.06
2022-12-25T18:58:35.044Z,7.04
2022-12-25T19:01:09.640Z,7.05
2022-12-25T19:03:36.129Z,7.07
2022-12-25T19:06:02.662Z,7.10
2022-12-25T19:08:29.367Z,7.14
2022-12-25T19:10:55.708Z,7.15
2022-12-25T19:13:22.428Z,7.14
2022-12-25T19:15:49.108Z,7.12
2022-12-25T19:18:15.604Z,7.11
2022-12-25T19:20:43.450Z,7.09
2022-12-25T19:23:10.121Z,7.11
2022-12-25T19:25:38.987Z,7.14
2022-12-25T19:28:05.580Z,7.14
2022-12-25T19:30:32.289Z,7.14
2022-12-25T19:32:58.701Z,7.14
2022-12-25T19:35:25.422Z,7.12
2022-12-25T19:37:52.078Z,7.09
2022-12-25T19:40:18.667Z,7.05
2022-12-25T19:42:45.462Z,7.04
2022-12-25T19:45:12.055Z,7.05
2022-12-25T19:47:38.561Z,7.07
2022-12-25T19:50:05.548Z,7.07
2022-12-25T19:52:32.292Z,7.08
2022-12-25T19:54:58.681Z,7.06
2022-12-25T19:57:25.331Z,7.01
2022-12-25T19:59:52.136Z,6.96
2022-12-25T20:02:18.579Z,6.91
2022-12-25T20:04:45.593Z,6.89
2022-12-25T20:07:12.231Z,6.88
2022-12-25T20:09:38.889Z,6.89
2022-12-25T20:12:07.752Z,6.89
2022-12-25T20:14:34.144Z,6.88
2022-12-25T20:17:00.848Z,6.87
2022-12-25T20:19:27.690Z,6.86
2022-12-25T20:21:54.302Z,6.83
2022-12-25T20:24:22.760Z,6.82
2022-12-25T20:26:53.736Z,6.83
2022-12-25T20:29:23.814Z,6.88
2022-12-25T20:31:51.444Z,6.90
2022-12-25T20:34:17.990Z,6.89
2022-12-25T20:36:44.893Z,6.87
2022-12-25T20:39:12.380Z,6.85
2022-12-25T20:41:39.259Z,6.82
2022-12-25T20:44:09.460Z,6.82
2022-12-25T20:46:36.628Z,6.85
2022-12-25T20:49:03.268Z,6.87
2022-12-25T20:51:29.924Z,6.87
2022-12-25T20:53:56.773Z,6.88
2022-12-25T20:56:24.946Z,6.89
2022-12-25T20:58:56.517Z,6.89
2022-12-25T21:01:23.686Z,6.88
2022-12-25T21:03:50.561Z,6.89
2022-12-25T21:06:17.444Z,6.93
2022-12-25T21:08:44.511Z,6.94
2022-12-25T21:11:11.218Z,6.97
2022-12-25T21:13:39.837Z,6.97
2022-12-25T21:16:12.254Z,6.98
2022-12-25T21:18:38.843Z,6.97
2022-12-25T21:21:06.793Z,6.97
2022-12-25T21:23:35.553Z,6.97
2022-12-25T21:26:19.949Z,6.99
2022-12-25T21:28:47.893Z,6.99
2022-12-25T21:31:14.952Z,7.02
2022-12-25T21:33:50.727Z,7.04
2022-12-25T21:36:28.478Z,7.05
2022-12-25T21:39:02.485Z,7.03
2022-12-25T21:41:30.448Z,7.01
2022-12-25T21:43:57.204Z,7.00
2022-12-25T21:46:24.759Z,7.02
2022-12-25T21:48:51.895Z,7.05
2022-12-25T21:51:40.243Z,7.08
2022-12-25T21:54:07.621Z,7.10
2022-12-25T21:56:43.136Z,7.09
2022-12-25T21:59:14.079Z,7.08
2022-12-25T22:01:41.019Z,7.07
2022-12-25T22:04:09.560Z,7.06
2022-12-25T22:06:55.148Z,7.09
2022-12-25T22:09:21.882Z,7.10
2022-12-25T22:12:06.843Z,7.10
2022-12-25T22:14:57.012Z,7.09
2022-12-25T22:17:47.512Z,7.07
2022-12-25T22:20:17.331Z,7.04
2022-12-25T22:22:44.192Z,7.04
2022-12-25T22:25:11.807Z,7.06
2022-12-25T22:27:39.696Z,7.08
2022-12-25T22:30:09.307Z,7.09
2022-12-25T22:32:36.652Z,7.08
2022-12-25T22:35:03.617Z,7.07
2022-12-25T22:37:30.221Z,7.05
2022-12-25T22:39:56.868Z,7.05
2022-12-25T22:42:23.853Z,7.05
2022-12-25T22:44:50.678Z,7.07
2022-12-25T22:47:17.566Z,7.06
2022-12-25T22:49:45.868Z,7.06
2022-12-25T22:52:12.412Z,7.04
2022-12-25T22:54:38.945Z,7.05
2022-12-25T22:57:05.517Z,7.05
2022-12-25T22:59:32.428Z,7.08
2022-12-25T23:01:59.386Z,7.10
2022-12-25T23:04:26.463Z,7.11
2022-12-25T23:06:53.059Z,7.10
2022-12-25T23:09:24.770Z,7.10
2022-12-25T23:11:51.395Z,7.08
2022-12-25T23:14:36.846Z,7.09
2022-12-25T23:17:03.421Z,7.12
2022-12-25T23:19:49.246Z,7.14
2022-12-25T23:22:34.587Z,7.17
2022-12-25T23:25:19.975Z,7.17
2022-12-25T23:27:46.436Z,7.13
2022-12-25T23:30:15.387Z,7.10
2022-12-25T23:32:43.241Z,7.08
2022-12-25T23:35:10.724Z,7.08
2022-12-25T23:37:37.361Z,7.09
2022-12-25T23:40:04.893Z,7.13
2022-12-25T23:42:31.467Z,7.15
2022-12-25T23:44:58.006Z,7.15
2022-12-25T23:47:24.489Z,7.16
2022-12-25T23:49:51.029Z,7.14
2022-12-25T23:52:17.758Z,7.15
2022-12-25T23:54:44.167Z,7.18
2022-12-25T23:57:10.628Z,7.19
2022-12-25T23:59:37.395Z,7.21
